<?xml version="1.0" encoding="UTF-8" standalone="no" ?><gpx xmlns="http://www.topografix.com/GPX/1/1" xmlns:gpxx="http://www.garmin.com/xmlschemas/GpxExtensions/v3" xmlns:wptx1="http://www.garmin.com/xmlschemas/WaypointExtension/v1" xmlns:gpxtpx="http://www.garmin.com/xmlschemas/TrackPointExtension/v1" creator="GuideVTT.com" version="1.1" xmlns:xsi="http://www.w3.org/2001/XMLSchema-instance" xsi:schemaLocation="http://www.topografix.com/GPX/1/1 http://www.topografix.com/GPX/1/1/gpx.xsd http://www.garmin.com/xmlschemas/GpxExtensions/v3 http://www8.garmin.com/xmlschemas/GpxExtensionsv3.xsd http://www.garmin.com/xmlschemas/WaypointExtension/v1 http://www8.garmin.com/xmlschemas/WaypointExtensionv1.xsd http://www.garmin.com/xmlschemas/TrackPointExtension/v1 http://www.garmin.com/xmlschemas/TrackPointExtensionv1.xsd">
<metadata><link href="http://www.garmin.com"><text>Garmin International</text></link><time>2013-06-22T15:13:50Z</time></metadata>
<trk><name>rp_sortie5.gpx</name><extensions><gpxx:TrackExtension><gpxx:DisplayColor>Cyan</gpxx:DisplayColor></gpxx:TrackExtension></extensions><trkseg>
<trkpt lat="47.41390228" lon="7.07474470"><ele>412.542847</ele><time>2006-05-11T16:08:24Z</time></trkpt>
<trkpt lat="47.41394520" lon="7.07472324"><ele>412.542847</ele><time>2006-05-11T16:08:37Z</time></trkpt>
<trkpt lat="47.41390228" lon="7.07388639"><ele>412.542847</ele><time>2006-05-11T16:08:53Z</time></trkpt>
<trkpt lat="47.41293669" lon="7.07410097"><ele>412.542847</ele><time>2006-05-11T16:09:19Z</time></trkpt>
<trkpt lat="47.41229296" lon="7.07410097"><ele>412.542847</ele><time>2006-05-11T16:09:32Z</time></trkpt>
<trkpt lat="47.41055489" lon="7.07341433"><ele>412.542847</ele><time>2006-05-11T16:10:14Z</time></trkpt>
<trkpt lat="47.41027594" lon="7.07304955"><ele>412.542847</ele><time>2006-05-11T16:10:28Z</time></trkpt>
<trkpt lat="47.41003990" lon="7.07249165"><ele>412.542847</ele><time>2006-05-11T16:10:40Z</time></trkpt>
<trkpt lat="47.40967512" lon="7.07184792"><ele>412.542847</ele><time>2006-05-11T16:10:55Z</time></trkpt>
<trkpt lat="47.40894556" lon="7.07105398"><ele>412.542847</ele><time>2006-05-11T16:11:21Z</time></trkpt>
<trkpt lat="47.40744352" lon="7.06950903"><ele>412.542847</ele><time>2006-05-11T16:12:12Z</time></trkpt>
<trkpt lat="47.40697145" lon="7.06892967"><ele>412.542847</ele><time>2006-05-11T16:12:31Z</time></trkpt>
<trkpt lat="47.40559816" lon="7.06738472"><ele>420.714111</ele><time>2006-05-11T16:13:24Z</time></trkpt>
<trkpt lat="47.40527630" lon="7.06732035"><ele>433.211304</ele><time>2006-05-11T16:13:34Z</time></trkpt>
<trkpt lat="47.40456820" lon="7.06736326"><ele>452.918213</ele><time>2006-05-11T16:13:50Z</time></trkpt>
<trkpt lat="47.40272284" lon="7.06680536"><ele>474.067261</ele><time>2006-05-11T16:14:23Z</time></trkpt>
<trkpt lat="47.40233660" lon="7.06644058"><ele>477.431885</ele><time>2006-05-11T16:14:33Z</time></trkpt>
<trkpt lat="47.40205765" lon="7.06652641"><ele>477.431885</ele><time>2006-05-11T16:14:41Z</time></trkpt>
<trkpt lat="47.40162849" lon="7.06682682"><ele>478.393188</ele><time>2006-05-11T16:14:57Z</time></trkpt>
<trkpt lat="47.40113497" lon="7.06734180"><ele>478.393188</ele><time>2006-05-11T16:15:13Z</time></trkpt>
<trkpt lat="47.40111351" lon="7.06740618"><ele>478.393188</ele><time>2006-05-11T16:15:14Z</time></trkpt>
<trkpt lat="47.40113497" lon="7.06989527"><ele>477.912476</ele><time>2006-05-11T16:15:29Z</time></trkpt>
<trkpt lat="47.40102768" lon="7.07137585"><ele>476.951294</ele><time>2006-05-11T16:15:40Z</time></trkpt>
<trkpt lat="47.40102768" lon="7.07240582"><ele>479.354492</ele><time>2006-05-11T16:15:50Z</time></trkpt>
<trkpt lat="47.40094185" lon="7.07358599"><ele>477.912476</ele><time>2006-05-11T16:16:02Z</time></trkpt>
<trkpt lat="47.40049124" lon="7.07437992"><ele>472.144653</ele><time>2006-05-11T16:16:11Z</time></trkpt>
<trkpt lat="47.40042686" lon="7.07487345"><ele>467.818726</ele><time>2006-05-11T16:16:16Z</time></trkpt>
<trkpt lat="47.40042686" lon="7.07534552"><ele>463.492798</ele><time>2006-05-11T16:16:24Z</time></trkpt>
<trkpt lat="47.40006208" lon="7.07442284"><ele>467.338135</ele><time>2006-05-11T16:16:42Z</time></trkpt>
<trkpt lat="47.39989042" lon="7.07360744"><ele>469.260742</ele><time>2006-05-11T16:16:54Z</time></trkpt>
<trkpt lat="47.39971876" lon="7.07240582"><ele>471.18335</ele><time>2006-05-11T16:17:10Z</time></trkpt>
<trkpt lat="47.39941835" lon="7.07137585"><ele>473.58667</ele><time>2006-05-11T16:17:26Z</time></trkpt>
<trkpt lat="47.39913940" lon="7.07105398"><ele>475.509277</ele><time>2006-05-11T16:17:36Z</time></trkpt>
<trkpt lat="47.39804506" lon="7.07103252"><ele>480.315918</ele><time>2006-05-11T16:18:09Z</time></trkpt>
<trkpt lat="47.39665031" lon="7.07107544"><ele>490.40979</ele><time>2006-05-11T16:18:53Z</time></trkpt>
<trkpt lat="47.39598513" lon="7.07094669"><ele>491.851685</ele><time>2006-05-11T16:19:09Z</time></trkpt>
<trkpt lat="47.39394665" lon="7.07041025"><ele>490.890381</ele><time>2006-05-11T16:19:49Z</time></trkpt>
<trkpt lat="47.39358187" lon="7.07019567"><ele>487.045044</ele><time>2006-05-11T16:19:56Z</time></trkpt>
<trkpt lat="47.39345312" lon="7.07049608"><ele>485.122437</ele><time>2006-05-11T16:20:00Z</time></trkpt>
<trkpt lat="47.39345312" lon="7.07075357"><ele>484.161133</ele><time>2006-05-11T16:20:03Z</time></trkpt>
<trkpt lat="47.39326000" lon="7.07077503"><ele>483.68042</ele><time>2006-05-11T16:20:08Z</time></trkpt>
<trkpt lat="47.39302397" lon="7.07060337"><ele>485.122437</ele><time>2006-05-11T16:20:16Z</time></trkpt>
<trkpt lat="47.39216566" lon="7.07019567"><ele>489.929077</ele><time>2006-05-11T16:20:43Z</time></trkpt>
<trkpt lat="47.39162922" lon="7.06978798"><ele>492.812988</ele><time>2006-05-11T16:20:59Z</time></trkpt>
<trkpt lat="47.39135027" lon="7.06933737"><ele>495.696899</ele><time>2006-05-11T16:21:12Z</time></trkpt>
<trkpt lat="47.39107132" lon="7.06873655"><ele>498.580933</ele><time>2006-05-11T16:21:27Z</time></trkpt>
<trkpt lat="47.39079237" lon="7.06824303"><ele>500.50354</ele><time>2006-05-11T16:21:41Z</time></trkpt>
<trkpt lat="47.39055634" lon="7.06753492"><ele>502.906738</ele><time>2006-05-11T16:21:55Z</time></trkpt>
<trkpt lat="47.39040613" lon="7.06665516"><ele>505.310181</ele><time>2006-05-11T16:22:10Z</time></trkpt>
<trkpt lat="47.39023447" lon="7.06588268"><ele>507.232788</ele><time>2006-05-11T16:22:24Z</time></trkpt>
<trkpt lat="47.38971949" lon="7.06461668"><ele>513.962036</ele><time>2006-05-11T16:22:53Z</time></trkpt>
<trkpt lat="47.38944054" lon="7.06418753"><ele>517.32666</ele><time>2006-05-11T16:23:08Z</time></trkpt>
<trkpt lat="47.38901138" lon="7.06343651"><ele>522.613892</ele><time>2006-05-11T16:23:32Z</time></trkpt>
<trkpt lat="47.38776684" lon="7.06150532"><ele>535.591553</ele><time>2006-05-11T16:24:39Z</time></trkpt>
<trkpt lat="47.38753080" lon="7.06120491"><ele>542.320923</ele><time>2006-05-11T16:24:51Z</time></trkpt>
<trkpt lat="47.38744497" lon="7.06105471"><ele>543.282104</ele><time>2006-05-11T16:24:57Z</time></trkpt>
<trkpt lat="47.38688707" lon="7.06041098"><ele>537.994995</ele><time>2006-05-11T16:25:26Z</time></trkpt>
<trkpt lat="47.38635063" lon="7.05938101"><ele>537.514282</ele><time>2006-05-11T16:26:10Z</time></trkpt>
<trkpt lat="47.38581419" lon="7.05908060"><ele>546.646851</ele><time>2006-05-11T16:26:39Z</time></trkpt>
<trkpt lat="47.38540649" lon="7.05897331"><ele>548.569336</ele><time>2006-05-11T16:26:59Z</time></trkpt>
<trkpt lat="47.38489151" lon="7.05912352"><ele>549.050049</ele><time>2006-05-11T16:27:31Z</time></trkpt>
<trkpt lat="47.38465548" lon="7.05940247"><ele>556.26001</ele><time>2006-05-11T16:27:52Z</time></trkpt>
<trkpt lat="47.38450527" lon="7.05953121"><ele>561.547363</ele><time>2006-05-11T16:28:05Z</time></trkpt>
<trkpt lat="47.38422632" lon="7.05940247"><ele>563.469971</ele><time>2006-05-11T16:28:23Z</time></trkpt>
<trkpt lat="47.38416195" lon="7.05908060"><ele>570.679688</ele><time>2006-05-11T16:28:39Z</time></trkpt>
<trkpt lat="47.38439798" lon="7.05802917"><ele>584.618896</ele><time>2006-05-11T16:29:16Z</time></trkpt>
<trkpt lat="47.38446236" lon="7.05747128"><ele>588.464355</ele><time>2006-05-11T16:29:34Z</time></trkpt>
<trkpt lat="47.38446236" lon="7.05717087"><ele>588.945068</ele><time>2006-05-11T16:29:47Z</time></trkpt>
<trkpt lat="47.38431215" lon="7.05697775"><ele>588.945068</ele><time>2006-05-11T16:29:59Z</time></trkpt>
<trkpt lat="47.38409758" lon="7.05695629"><ele>589.425537</ele><time>2006-05-11T16:30:13Z</time></trkpt>
<trkpt lat="47.38394737" lon="7.05708504"><ele>594.232178</ele><time>2006-05-11T16:30:26Z</time></trkpt>
<trkpt lat="47.38366842" lon="7.05747128"><ele>594.712646</ele><time>2006-05-11T16:30:49Z</time></trkpt>
<trkpt lat="47.38336802" lon="7.05775023"><ele>594.232178</ele><time>2006-05-11T16:31:09Z</time></trkpt>
<trkpt lat="47.38315344" lon="7.05770731"><ele>594.232178</ele><time>2006-05-11T16:31:22Z</time></trkpt>
<trkpt lat="47.38306761" lon="7.05740690"><ele>595.674072</ele><time>2006-05-11T16:31:34Z</time></trkpt>
<trkpt lat="47.38321781" lon="7.05687046"><ele>600</ele><time>2006-05-11T16:31:52Z</time></trkpt>
<trkpt lat="47.38330364" lon="7.05644131"><ele>606.248535</ele><time>2006-05-11T16:32:06Z</time></trkpt>
<trkpt lat="47.38328218" lon="7.05592632"><ele>613.938965</ele><time>2006-05-11T16:32:27Z</time></trkpt>
<trkpt lat="47.38304615" lon="7.05566883"><ele>616.822998</ele><time>2006-05-11T16:32:44Z</time></trkpt>
<trkpt lat="47.38278866" lon="7.05584049"><ele>620.187744</ele><time>2006-05-11T16:33:02Z</time></trkpt>
<trkpt lat="47.38250971" lon="7.05609798"><ele>626.916992</ele><time>2006-05-11T16:33:19Z</time></trkpt>
<trkpt lat="47.38229513" lon="7.05633402"><ele>632.204102</ele><time>2006-05-11T16:33:35Z</time></trkpt>
<trkpt lat="47.38201618" lon="7.05648422"><ele>634.126709</ele><time>2006-05-11T16:33:50Z</time></trkpt>
<trkpt lat="47.38173723" lon="7.05654860"><ele>634.126709</ele><time>2006-05-11T16:34:04Z</time></trkpt>
<trkpt lat="47.38111496" lon="7.05652714"><ele>633.645996</ele><time>2006-05-11T16:34:50Z</time></trkpt>
<trkpt lat="47.38081455" lon="7.05648422"><ele>633.645996</ele><time>2006-05-11T16:35:11Z</time></trkpt>
<trkpt lat="47.37959146" lon="7.05592632"><ele>634.126709</ele><time>2006-05-11T16:36:13Z</time></trkpt>
<trkpt lat="47.37931252" lon="7.05536842"><ele>634.126709</ele><time>2006-05-11T16:36:25Z</time></trkpt>
<trkpt lat="47.37894773" lon="7.05498219"><ele>634.126709</ele><time>2006-05-11T16:36:39Z</time></trkpt>
<trkpt lat="47.37828255" lon="7.05491781"><ele>634.607422</ele><time>2006-05-11T16:36:55Z</time></trkpt>
<trkpt lat="47.37793922" lon="7.05521822"><ele>639.414063</ele><time>2006-05-11T16:37:06Z</time></trkpt>
<trkpt lat="47.37763882" lon="7.05654860"><ele>643.259277</ele><time>2006-05-11T16:37:11Z</time></trkpt>
<trkpt lat="47.37757444" lon="7.05734253"><ele>646.143311</ele><time>2006-05-11T16:37:24Z</time></trkpt>
<trkpt lat="47.37761736" lon="7.05890894"><ele>654.314697</ele><time>2006-05-11T16:38:21Z</time></trkpt>
<trkpt lat="47.37772465" lon="7.05940247"><ele>658.159912</ele><time>2006-05-11T16:38:38Z</time></trkpt>
<trkpt lat="47.37772465" lon="7.05983162"><ele>662.485596</ele><time>2006-05-11T16:38:53Z</time></trkpt>
<trkpt lat="47.37757444" lon="7.06236362"><ele>681.231445</ele><time>2006-05-11T16:40:19Z</time></trkpt>
<trkpt lat="47.37744570" lon="7.06296444"><ele>685.557373</ele><time>2006-05-11T16:40:40Z</time></trkpt>
<trkpt lat="47.37757444" lon="7.06388712"><ele>692.286621</ele><time>2006-05-11T16:41:18Z</time></trkpt>
<trkpt lat="47.37759590" lon="7.06453085"><ele>699.496338</ele><time>2006-05-11T16:41:47Z</time></trkpt>
<trkpt lat="47.37742424" lon="7.06470251"><ele>701.419189</ele><time>2006-05-11T16:41:59Z</time></trkpt>
<trkpt lat="47.37686634" lon="7.06446648"><ele>707.667725</ele><time>2006-05-11T16:42:41Z</time></trkpt>
<trkpt lat="47.37605095" lon="7.06418753"><ele>716.31958</ele><time>2006-05-11T16:43:38Z</time></trkpt>
<trkpt lat="47.37577200" lon="7.06390858"><ele>715.838867</ele><time>2006-05-11T16:44:02Z</time></trkpt>
<trkpt lat="47.37555742" lon="7.06315756"><ele>715.838867</ele><time>2006-05-11T16:44:41Z</time></trkpt>
<trkpt lat="47.37555742" lon="7.06274986"><ele>718.7229</ele><time>2006-05-11T16:45:01Z</time></trkpt>
<trkpt lat="47.37540722" lon="7.06174135"><ele>724.971436</ele><time>2006-05-11T16:45:51Z</time></trkpt>
<trkpt lat="47.37499952" lon="7.06041098"><ele>728.81665</ele><time>2006-05-11T16:47:04Z</time></trkpt>
<trkpt lat="47.37480640" lon="7.06002474"><ele>738.429932</ele><time>2006-05-11T16:47:22Z</time></trkpt>
<trkpt lat="47.37476349" lon="7.05976725"><ele>745.158936</ele><time>2006-05-11T16:47:37Z</time></trkpt>
<trkpt lat="47.37476349" lon="7.05938101"><ele>750.446533</ele><time>2006-05-11T16:47:55Z</time></trkpt>
<trkpt lat="47.37461329" lon="7.05841541"><ele>757.65625</ele><time>2006-05-11T16:48:37Z</time></trkpt>
<trkpt lat="47.37416267" lon="7.05669880"><ele>778.805176</ele><time>2006-05-11T16:49:57Z</time></trkpt>
<trkpt lat="47.37399101" lon="7.05618382"><ele>782.650635</ele><time>2006-05-11T16:50:19Z</time></trkpt>
<trkpt lat="47.37394810" lon="7.05581903"><ele>788.89917</ele><time>2006-05-11T16:50:35Z</time></trkpt>
<trkpt lat="47.37386227" lon="7.05564737"><ele>790.821533</ele><time>2006-05-11T16:50:44Z</time></trkpt>
<trkpt lat="47.37371206" lon="7.05491781"><ele>792.263672</ele><time>2006-05-11T16:51:21Z</time></trkpt>
<trkpt lat="47.37323999" lon="7.05378056"><ele>802.357422</ele><time>2006-05-11T16:52:15Z</time></trkpt>
<trkpt lat="47.37319708" lon="7.05343723"><ele>810.047852</ele><time>2006-05-11T16:52:31Z</time></trkpt>
<trkpt lat="47.37349749" lon="7.05307245"><ele>811.970703</ele><time>2006-05-11T16:52:53Z</time></trkpt>
<trkpt lat="47.37371206" lon="7.05266476"><ele>813.412842</ele><time>2006-05-11T16:53:14Z</time></trkpt>
<trkpt lat="47.37384081" lon="7.05219269"><ele>813.412842</ele><time>2006-05-11T16:53:27Z</time></trkpt>
<trkpt lat="47.37399101" lon="7.05118418"><ele>812.451416</ele><time>2006-05-11T16:53:47Z</time></trkpt>
<trkpt lat="47.37429142" lon="7.04970360"><ele>811.48999</ele><time>2006-05-11T16:54:13Z</time></trkpt>
<trkpt lat="47.37442017" lon="7.04888821"><ele>811.48999</ele><time>2006-05-11T16:54:31Z</time></trkpt>
<trkpt lat="47.37448454" lon="7.04811573"><ele>811.009277</ele><time>2006-05-11T16:54:51Z</time></trkpt>
<trkpt lat="47.37448454" lon="7.04775095"><ele>811.970703</ele><time>2006-05-11T16:55:03Z</time></trkpt>
<trkpt lat="47.37426996" lon="7.04669952"><ele>811.48999</ele><time>2006-05-11T16:55:41Z</time></trkpt>
<trkpt lat="47.37414122" lon="7.04635620"><ele>809.08667</ele><time>2006-05-11T16:55:55Z</time></trkpt>
<trkpt lat="47.37403393" lon="7.04581976"><ele>811.970703</ele><time>2006-05-11T16:56:14Z</time></trkpt>
<trkpt lat="47.37405539" lon="7.04483271"><ele>821.103271</ele><time>2006-05-11T16:56:44Z</time></trkpt>
<trkpt lat="47.37424850" lon="7.04423189"><ele>824.948486</ele><time>2006-05-11T16:57:06Z</time></trkpt>
<trkpt lat="47.37426996" lon="7.04255819"><ele>833.119629</ele><time>2006-05-11T16:58:01Z</time></trkpt>
<trkpt lat="47.37422705" lon="7.04208612"><ele>833.119629</ele><time>2006-05-11T16:58:18Z</time></trkpt>
<trkpt lat="47.37426996" lon="7.04163551"><ele>837.92627</ele><time>2006-05-11T16:58:39Z</time></trkpt>
<trkpt lat="47.37422705" lon="7.04069138"><ele>840.32959</ele><time>2006-05-11T16:59:10Z</time></trkpt>
<trkpt lat="47.37424850" lon="7.04045534"><ele>841.771484</ele><time>2006-05-11T16:59:17Z</time></trkpt>
<trkpt lat="47.37405539" lon="7.03901768"><ele>848.981445</ele><time>2006-05-11T17:00:03Z</time></trkpt>
<trkpt lat="47.37409830" lon="7.03762293"><ele>853.307373</ele><time>2006-05-11T17:00:47Z</time></trkpt>
<trkpt lat="47.37401247" lon="7.03717232"><ele>853.788086</ele><time>2006-05-11T17:01:01Z</time></trkpt>
<trkpt lat="47.37390518" lon="7.03712940"><ele>853.307373</ele><time>2006-05-11T17:01:09Z</time></trkpt>
<trkpt lat="47.37386227" lon="7.03721523"><ele>854.749268</ele><time>2006-05-11T17:01:15Z</time></trkpt>
<trkpt lat="47.37384081" lon="7.03747272"><ele>857.152588</ele><time>2006-05-11T17:01:28Z</time></trkpt>
<trkpt lat="47.37388372" lon="7.03779459"><ele>857.633301</ele><time>2006-05-11T17:01:48Z</time></trkpt>
<trkpt lat="47.37386227" lon="7.03826666"><ele>857.633301</ele><time>2006-05-11T17:02:12Z</time></trkpt>
<trkpt lat="47.37375498" lon="7.03878164"><ele>862.920654</ele><time>2006-05-11T17:02:35Z</time></trkpt>
<trkpt lat="47.37334728" lon="7.03989744"><ele>868.207764</ele><time>2006-05-11T17:03:23Z</time></trkpt>
<trkpt lat="47.37287521" lon="7.04092741"><ele>879.262939</ele><time>2006-05-11T17:04:03Z</time></trkpt>
<trkpt lat="47.37255335" lon="7.04139948"><ele>881.66626</ele><time>2006-05-11T17:04:21Z</time></trkpt>
<trkpt lat="47.37246752" lon="7.04193592"><ele>881.66626</ele><time>2006-05-11T17:04:32Z</time></trkpt>
<trkpt lat="47.37229586" lon="7.04272985"><ele>881.185791</ele><time>2006-05-11T17:04:45Z</time></trkpt>
<trkpt lat="47.37205982" lon="7.04431772"><ele>880.705078</ele><time>2006-05-11T17:05:10Z</time></trkpt>
<trkpt lat="47.37203836" lon="7.04547644"><ele>882.146973</ele><time>2006-05-11T17:05:30Z</time></trkpt>
<trkpt lat="47.37186670" lon="7.04841614"><ele>883.588867</ele><time>2006-05-11T17:06:14Z</time></trkpt>
<trkpt lat="47.37167358" lon="7.04978943"><ele>883.588867</ele><time>2006-05-11T17:06:31Z</time></trkpt>
<trkpt lat="47.37111568" lon="7.05118418"><ele>879.262939</ele><time>2006-05-11T17:06:44Z</time></trkpt>
<trkpt lat="47.37085819" lon="7.05099106"><ele>879.262939</ele><time>2006-05-11T17:06:47Z</time></trkpt>
<trkpt lat="47.37023592" lon="7.05131292"><ele>879.743652</ele><time>2006-05-11T17:07:02Z</time></trkpt>
<trkpt lat="47.37010717" lon="7.05163479"><ele>878.301758</ele><time>2006-05-11T17:07:11Z</time></trkpt>
<trkpt lat="47.37019300" lon="7.05195665"><ele>879.743652</ele><time>2006-05-11T17:07:23Z</time></trkpt>
<trkpt lat="47.37072945" lon="7.05300808"><ele>875.41748</ele><time>2006-05-11T17:07:46Z</time></trkpt>
<trkpt lat="47.37139463" lon="7.05483198"><ele>867.727051</ele><time>2006-05-11T17:08:11Z</time></trkpt>
<trkpt lat="47.37163067" lon="7.05541134"><ele>869.169189</ele><time>2006-05-11T17:08:22Z</time></trkpt>
<trkpt lat="47.37205982" lon="7.05616236"><ele>868.688477</ele><time>2006-05-11T17:08:36Z</time></trkpt>
<trkpt lat="47.37276793" lon="7.05781460"><ele>866.765869</ele><time>2006-05-11T17:08:54Z</time></trkpt>
<trkpt lat="47.37396955" lon="7.06086159"><ele>866.285156</ele><time>2006-05-11T17:09:21Z</time></trkpt>
<trkpt lat="47.37435579" lon="7.06257820"><ele>861.959473</ele><time>2006-05-11T17:09:34Z</time></trkpt>
<trkpt lat="47.37450600" lon="7.06826448"><ele>860.998047</ele><time>2006-05-11T17:10:11Z</time></trkpt>
<trkpt lat="47.37478495" lon="7.06832886"><ele>860.998047</ele><time>2006-05-11T17:10:14Z</time></trkpt>
<trkpt lat="47.37532139" lon="7.06877947"><ele>860.998047</ele><time>2006-05-11T17:10:20Z</time></trkpt>
<trkpt lat="47.37587929" lon="7.07006693"><ele>856.191162</ele><time>2006-05-11T17:10:30Z</time></trkpt>
<trkpt lat="47.37620115" lon="7.07109690"><ele>853.788086</ele><time>2006-05-11T17:10:39Z</time></trkpt>
<trkpt lat="47.37703800" lon="7.07238436"><ele>838.887695</ele><time>2006-05-11T17:10:52Z</time></trkpt>
<trkpt lat="47.37738132" lon="7.07249165"><ele>834.081055</ele><time>2006-05-11T17:10:57Z</time></trkpt>
<trkpt lat="47.37819672" lon="7.07154751"><ele>833.119629</ele><time>2006-05-11T17:11:10Z</time></trkpt>
<trkpt lat="47.37832546" lon="7.07131147"><ele>833.119629</ele><time>2006-05-11T17:11:12Z</time></trkpt>
<trkpt lat="47.37896919" lon="7.06603289"><ele>797.551025</ele><time>2006-05-11T17:11:39Z</time></trkpt>
<trkpt lat="47.37922668" lon="7.06470251"><ele>783.131104</ele><time>2006-05-11T17:11:47Z</time></trkpt>
<trkpt lat="47.37948418" lon="7.06444502"><ele>774.959961</ele><time>2006-05-11T17:11:52Z</time></trkpt>
<trkpt lat="47.37961292" lon="7.06487417"><ele>768.230713</ele><time>2006-05-11T17:11:56Z</time></trkpt>
<trkpt lat="47.37959146" lon="7.06515312"><ele>765.346924</ele><time>2006-05-11T17:11:58Z</time></trkpt>
<trkpt lat="47.37965584" lon="7.06568956"><ele>759.578857</ele><time>2006-05-11T17:12:02Z</time></trkpt>
<trkpt lat="47.38025665" lon="7.06747055"><ele>748.523682</ele><time>2006-05-11T17:12:15Z</time></trkpt>
<trkpt lat="47.38079309" lon="7.06955194"><ele>744.678223</ele><time>2006-05-11T17:12:29Z</time></trkpt>
<trkpt lat="47.38154411" lon="7.07337141"><ele>741.794434</ele><time>2006-05-11T17:12:53Z</time></trkpt>
<trkpt lat="47.37961292" lon="7.07491636"><ele>733.142578</ele><time>2006-05-11T17:13:03Z</time></trkpt>
<trkpt lat="47.37903357" lon="7.07551718"><ele>732.662109</ele><time>2006-05-11T17:13:10Z</time></trkpt>
<trkpt lat="47.38002062" lon="7.07635403"><ele>730.258545</ele><time>2006-05-11T17:13:15Z</time></trkpt>
<trkpt lat="47.38128662" lon="7.07789898"><ele>727.374756</ele><time>2006-05-11T17:13:25Z</time></trkpt>
<trkpt lat="47.38126516" lon="7.07935810"><ele>715.838867</ele><time>2006-05-11T17:13:34Z</time></trkpt>
<trkpt lat="47.38180161" lon="7.08010912"><ele>715.358154</ele><time>2006-05-11T17:13:38Z</time></trkpt>
<trkpt lat="47.38167286" lon="7.08221197"><ele>707.187012</ele><time>2006-05-11T17:13:49Z</time></trkpt>
<trkpt lat="47.38184452" lon="7.08300591"><ele>701.419189</ele><time>2006-05-11T17:13:55Z</time></trkpt>
<trkpt lat="47.38199472" lon="7.08425045"><ele>683.634521</ele><time>2006-05-11T17:14:05Z</time></trkpt>
<trkpt lat="47.38240242" lon="7.08525896"><ele>670.17627</ele><time>2006-05-11T17:14:12Z</time></trkpt>
<trkpt lat="47.38311052" lon="7.08562374"><ele>655.756592</ele><time>2006-05-11T17:14:19Z</time></trkpt>
<trkpt lat="47.38321781" lon="7.08564520"><ele>653.833984</ele><time>2006-05-11T17:14:20Z</time></trkpt>
<trkpt lat="47.38358259" lon="7.08519459"><ele>644.701172</ele><time>2006-05-11T17:14:25Z</time></trkpt>
<trkpt lat="47.38420486" lon="7.08309174"><ele>617.303711</ele><time>2006-05-11T17:14:40Z</time></trkpt>
<trkpt lat="47.38508463" lon="7.08146095"><ele>597.59668</ele><time>2006-05-11T17:14:53Z</time></trkpt>
<trkpt lat="47.38551378" lon="7.08090305"><ele>591.348145</ele><time>2006-05-11T17:14:59Z</time></trkpt>
<trkpt lat="47.38662958" lon="7.07987309"><ele>575.486328</ele><time>2006-05-11T17:15:12Z</time></trkpt>
<trkpt lat="47.38705873" lon="7.07989454"><ele>572.602539</ele><time>2006-05-11T17:15:17Z</time></trkpt>
<trkpt lat="47.38757372" lon="7.08015203"><ele>568.75708</ele><time>2006-05-11T17:15:23Z</time></trkpt>
<trkpt lat="47.38783121" lon="7.08004475"><ele>567.795654</ele><time>2006-05-11T17:15:27Z</time></trkpt>
<trkpt lat="47.38804579" lon="7.07976580"><ele>565.873291</ele><time>2006-05-11T17:15:31Z</time></trkpt>
<trkpt lat="47.38813162" lon="7.07935810"><ele>563.469971</ele><time>2006-05-11T17:15:35Z</time></trkpt>
<trkpt lat="47.38819599" lon="7.07845688"><ele>559.624756</ele><time>2006-05-11T17:15:43Z</time></trkpt>
<trkpt lat="47.38826036" lon="7.07822084"><ele>559.144043</ele><time>2006-05-11T17:15:46Z</time></trkpt>
<trkpt lat="47.38834620" lon="7.07691193"><ele>554.337402</ele><time>2006-05-11T17:16:01Z</time></trkpt>
<trkpt lat="47.38851786" lon="7.07639694"><ele>549.530762</ele><time>2006-05-11T17:16:07Z</time></trkpt>
<trkpt lat="47.38860369" lon="7.07637548"><ele>548.569336</ele><time>2006-05-11T17:16:08Z</time></trkpt>
<trkpt lat="47.38883972" lon="7.07592487"><ele>543.282104</ele><time>2006-05-11T17:16:15Z</time></trkpt>
<trkpt lat="47.38879681" lon="7.07562447"><ele>541.359497</ele><time>2006-05-11T17:16:18Z</time></trkpt>
<trkpt lat="47.38886118" lon="7.07517385"><ele>539.917603</ele><time>2006-05-11T17:16:23Z</time></trkpt>
<trkpt lat="47.38931179" lon="7.07399368"><ele>528.381836</ele><time>2006-05-11T17:16:33Z</time></trkpt>
<trkpt lat="47.38944054" lon="7.07369328"><ele>525.017212</ele><time>2006-05-11T17:16:36Z</time></trkpt>
<trkpt lat="47.38980532" lon="7.07322121"><ele>518.768555</ele><time>2006-05-11T17:16:43Z</time></trkpt>
<trkpt lat="47.39006281" lon="7.07315683"><ele>515.404053</ele><time>2006-05-11T17:16:47Z</time></trkpt>
<trkpt lat="47.39087820" lon="7.07330704"><ele>510.59729</ele><time>2006-05-11T17:16:58Z</time></trkpt>
<trkpt lat="47.39175797" lon="7.07264185"><ele>500.984131</ele><time>2006-05-11T17:17:13Z</time></trkpt>
<trkpt lat="47.39214420" lon="7.07229853"><ele>497.619629</ele><time>2006-05-11T17:17:24Z</time></trkpt>
<trkpt lat="47.39233732" lon="7.07210541"><ele>495.696899</ele><time>2006-05-11T17:17:29Z</time></trkpt>
<trkpt lat="47.39248753" lon="7.07191229"><ele>493.293579</ele><time>2006-05-11T17:17:33Z</time></trkpt>
<trkpt lat="47.39280939" lon="7.07189083"><ele>488.487183</ele><time>2006-05-11T17:17:39Z</time></trkpt>
<trkpt lat="47.39362478" lon="7.07212687"><ele>483.68042</ele><time>2006-05-11T17:17:53Z</time></trkpt>
<trkpt lat="47.39373207" lon="7.07191229"><ele>483.68042</ele><time>2006-05-11T17:17:59Z</time></trkpt>
<trkpt lat="47.39351749" lon="7.07105398"><ele>486.564453</ele><time>2006-05-11T17:18:26Z</time></trkpt>
<trkpt lat="47.39349604" lon="7.07045317"><ele>489.929077</ele><time>2006-05-11T17:18:46Z</time></trkpt>
<trkpt lat="47.39356041" lon="7.07019567"><ele>491.370972</ele><time>2006-05-11T17:18:54Z</time></trkpt>
<trkpt lat="47.39377499" lon="7.07023859"><ele>494.735596</ele><time>2006-05-11T17:19:04Z</time></trkpt>
<trkpt lat="47.39405394" lon="7.07041025"><ele>495.696899</ele><time>2006-05-11T17:19:14Z</time></trkpt>
<trkpt lat="47.39675760" lon="7.07105398"><ele>488.487183</ele><time>2006-05-11T17:20:13Z</time></trkpt>
<trkpt lat="47.39916086" lon="7.07105398"><ele>475.028687</ele><time>2006-05-11T17:20:43Z</time></trkpt>
<trkpt lat="47.39920378" lon="7.07075357"><ele>475.509277</ele><time>2006-05-11T17:20:48Z</time></trkpt>
<trkpt lat="47.39838839" lon="7.06671953"><ele>489.929077</ele><time>2006-05-11T17:22:23Z</time></trkpt>
<trkpt lat="47.39810944" lon="7.06631184"><ele>491.851685</ele><time>2006-05-11T17:22:34Z</time></trkpt>
<trkpt lat="47.39800215" lon="7.06609726"><ele>492.332397</ele><time>2006-05-11T17:22:39Z</time></trkpt>
<trkpt lat="47.39815235" lon="7.06592560"><ele>491.851685</ele><time>2006-05-11T17:22:45Z</time></trkpt>
<trkpt lat="47.39886045" lon="7.06586123"><ele>494.735596</ele><time>2006-05-11T17:23:01Z</time></trkpt>
<trkpt lat="47.39911795" lon="7.06590414"><ele>496.177734</ele><time>2006-05-11T17:23:08Z</time></trkpt>
<trkpt lat="47.39918232" lon="7.06583977"><ele>496.658325</ele><time>2006-05-11T17:23:11Z</time></trkpt>
<trkpt lat="47.39920378" lon="7.06566811"><ele>497.138916</ele><time>2006-05-11T17:23:14Z</time></trkpt>
<trkpt lat="47.39916086" lon="7.06491709"><ele>500.022949</ele><time>2006-05-11T17:23:25Z</time></trkpt>
<trkpt lat="47.39918232" lon="7.06416607"><ele>500.984131</ele><time>2006-05-11T17:23:35Z</time></trkpt>
<trkpt lat="47.39935398" lon="7.06393003"><ele>500.022949</ele><time>2006-05-11T17:23:40Z</time></trkpt>
<trkpt lat="47.39976168" lon="7.06416607"><ele>498.580933</ele><time>2006-05-11T17:23:53Z</time></trkpt>
<trkpt lat="47.40102768" lon="7.06511021"><ele>496.177734</ele><time>2006-05-11T17:24:22Z</time></trkpt>
<trkpt lat="47.40207911" lon="7.06633329"><ele>494.255005</ele><time>2006-05-11T17:24:41Z</time></trkpt>
<trkpt lat="47.40244389" lon="7.06635475"><ele>494.735596</ele><time>2006-05-11T17:24:48Z</time></trkpt>
<trkpt lat="47.40270138" lon="7.06656933"><ele>493.774292</ele><time>2006-05-11T17:24:54Z</time></trkpt>
<trkpt lat="47.40334511" lon="7.06686974"><ele>492.332397</ele><time>2006-05-11T17:25:05Z</time></trkpt>
<trkpt lat="47.40422487" lon="7.06712723"><ele>491.851685</ele><time>2006-05-11T17:25:18Z</time></trkpt>
<trkpt lat="47.40463257" lon="7.06729889"><ele>491.370972</ele><time>2006-05-11T17:25:25Z</time></trkpt>
<trkpt lat="47.40564108" lon="7.06729889"><ele>492.812988</ele><time>2006-05-11T17:25:46Z</time></trkpt>
<trkpt lat="47.40602732" lon="7.06742764"><ele>492.812988</ele><time>2006-05-11T17:25:53Z</time></trkpt>
<trkpt lat="47.40611315" lon="7.06755638"><ele>492.812988</ele><time>2006-05-11T17:25:57Z</time></trkpt>
<trkpt lat="47.40761518" lon="7.06860781"><ele>492.812988</ele><time>2006-05-11T17:26:24Z</time></trkpt>
<trkpt lat="47.40847349" lon="7.07032442"><ele>487.045044</ele><time>2006-05-11T17:26:38Z</time></trkpt>
<trkpt lat="47.40879536" lon="7.07064629"><ele>483.68042</ele><time>2006-05-11T17:26:44Z</time></trkpt>
<trkpt lat="47.40896702" lon="7.07077503"><ele>481.277222</ele><time>2006-05-11T17:26:47Z</time></trkpt>
<trkpt lat="47.40926743" lon="7.07122564"><ele>477.912476</ele><time>2006-05-11T17:26:54Z</time></trkpt>
<trkpt lat="47.40988970" lon="7.07186937"><ele>473.58667</ele><time>2006-05-11T17:27:05Z</time></trkpt>
<trkpt lat="47.40995407" lon="7.07191229"><ele>473.106079</ele><time>2006-05-11T17:27:06Z</time></trkpt>
<trkpt lat="47.41055489" lon="7.07324266"><ele>463.492798</ele><time>2006-05-11T17:27:20Z</time></trkpt>
<trkpt lat="47.41102695" lon="7.07356453"><ele>459.16687</ele><time>2006-05-11T17:27:26Z</time></trkpt>
<trkpt lat="47.41184235" lon="7.07384348"><ele>455.802246</ele><time>2006-05-11T17:27:36Z</time></trkpt>
<trkpt lat="47.41252899" lon="7.07416534"><ele>452.918213</ele><time>2006-05-11T17:27:47Z</time></trkpt>
<trkpt lat="47.41323709" lon="7.07407951"><ele>451.957031</ele><time>2006-05-11T17:28:00Z</time></trkpt>
<trkpt lat="47.41398811" lon="7.07390785"><ele>449.553711</ele><time>2006-05-11T17:28:15Z</time></trkpt>
<trkpt lat="47.41403103" lon="7.07414389"><ele>451.476318</ele><time>2006-05-11T17:28:21Z</time></trkpt>
<trkpt lat="47.41405249" lon="7.07465887"><ele>456.76355</ele><time>2006-05-11T17:28:34Z</time></trkpt>
<trkpt lat="47.41409540" lon="7.07478762"><ele>459.16687</ele><time>2006-05-11T17:28:44Z</time></trkpt>
</trkseg></trk></gpx>